Stevensville, MI (49127)

5:21 AM EDT on August 24, 2016 (GMT -0400)
APRSWXNET | | Change Station

Elev 636 ft 42.04 °N, 86.50 °W | Updated 23 minutes ago

Overcast
Overcast
70 °F
Feels Like 70 °F
N
5
Wind Variable Wind from SE
Gusts 0.0 mph

Today
High -- | Low -- °F
--% Chance of Precip.
Yesterday
High -- | Low -- °F
Precip. -- in
Pressure 30.07 in
Visibility 10.0 miles
Clouds Mostly Cloudy 3400 ft
Overcast 5500 ft
Dew Point 62 °F
Humidity 76%
Rainfall in
Snow Depth Not available.
7:03 AM 8:31 PM
Waning Gibbous, 59% visible
METAR KBEH 240853Z AUTO 16007KT 10SM BKN034 OVC055 21/16 A3008 RMK AO2 SLP182 T02110161 58010
Pressure 30.07 in
Visibility 10.0 miles
Clouds Mostly Cloudy 3400 ft
Overcast 5500 ft
Dew Point 62 °F
Humidity 76%
Rainfall in
Snow Depth Not available.
7:03 AM 8:31 PM
Waning Gibbous, 59% visible
METAR KBEH 240853Z AUTO 16007KT 10SM BKN034 OVC055 21/16 A3008 RMK AO2 SLP182 T02110161 58010

10-Day Weather Forecast

Almanac

Astronomy

Aug. 24, 2016 Rise Set
Actual Time
Civil Twilight
Nautical Twilight
Astronomical Twilight
Moon
Length of Visible Light
Length of Day
Tomorrow will be .
, % of the Moon is Illuminated

Today's Extremes

State Highs State Lows

Community

WunderPhotos

Upload Photos

1,934,560 photos uploaded!

WunderBlog® & News

Nearby

Air Quality

  Air Quality AQ Index Pollutant
Not available.

Snow Depth

Station Depth Elevation

Earthquake Activity

City Distance Mag. Time & Date
Minimum magnitude displayed is 2.5.

Coastal Water Temperatures

Place Temperature

Stations

Nearby Weather Stations

Station Location Temp. Windchill Dew Point Humidity Wind Precip. Elev Updated Type
                   

Watches & Warnings

There are currently no watches in effect.